createdAt,value
2019-04-02T00:01:34.334Z,9.98
2019-04-02T00:04:38.766Z,10.05
2019-04-02T00:07:43.681Z,10.02
2019-04-02T00:10:48.120Z,9.96
2019-04-02T00:13:53.545Z,9.85
2019-04-02T00:16:57.985Z,9.76
2019-04-02T00:20:03.402Z,9.72
2019-04-02T00:23:10.511Z,9.70
2019-04-02T00:26:15.237Z,9.67
2019-04-02T00:29:19.669Z,9.65
2019-04-02T00:32:24.118Z,9.53
2019-04-02T00:35:28.559Z,9.43
2019-04-02T00:38:34.289Z,9.54
2019-04-02T00:41:39.812Z,9.41
2019-04-02T00:44:44.253Z,9.44
2019-04-02T00:47:48.695Z,9.49
2019-04-02T00:50:53.124Z,9.44
2019-04-02T00:53:57.564Z,9.39
2019-04-02T00:57:02.009Z,9.45
2019-04-02T01:00:07.841Z,9.47
2019-04-02T01:03:12.471Z,9.54
2019-04-02T01:06:17.297Z,9.69
2019-04-02T01:09:21.733Z,9.51
2019-04-02T01:12:26.508Z,9.41
2019-04-02T01:15:30.937Z,9.28
2019-04-02T01:18:35.380Z,9.22
2019-04-02T01:21:39.827Z,9.27
2019-04-02T01:24:44.261Z,9.22
2019-04-02T01:27:49.032Z,9.17
2019-04-02T01:30:53.767Z,9.05
2019-04-02T01:33:58.207Z,8.99
2019-04-02T01:37:02.653Z,9.12
2019-04-02T01:40:10.172Z,9.06
2019-04-02T01:43:14.618Z,8.93
2019-04-02T01:46:19.043Z,8.92
2019-04-02T01:49:23.782Z,8.93
2019-04-02T01:52:28.223Z,8.85
2019-04-02T01:55:32.656Z,8.77
2019-04-02T01:58:37.377Z,8.79
2019-04-02T02:01:42.096Z,8.77
2019-04-02T02:04:46.552Z,8.77
2019-04-02T02:07:50.991Z,8.78
2019-04-02T02:10:55.433Z,8.68
2019-04-02T02:14:00.200Z,8.50
2019-04-02T02:17:04.636Z,8.51
2019-04-02T02:20:09.346Z,8.50
2019-04-02T02:23:13.787Z,8.39
2019-04-02T02:26:18.508Z,8.35
2019-04-02T02:29:23.241Z,8.23
2019-04-02T02:32:27.973Z,8.06
2019-04-02T02:35:32.710Z,8.13
2019-04-02T02:38:37.431Z,8.10
2019-04-02T02:42:06.022Z,8.11
2019-04-02T02:45:10.469Z,8.10
2019-04-02T02:48:16.540Z,8.02
2019-04-02T02:51:21.754Z,7.94
2019-04-02T02:54:26.200Z,7.89
2019-04-02T02:57:30.641Z,7.85
2019-04-02T03:00:35.082Z,7.78
2019-04-02T03:03:39.853Z,7.76
2019-04-02T03:06:44.286Z,7.82
2019-04-02T03:09:49.008Z,7.91
2019-04-02T03:12:53.442Z,7.83
2019-04-02T03:15:57.888Z,7.75
2019-04-02T03:19:03.003Z,7.76
2019-04-02T03:22:07.727Z,7.66
2019-04-02T03:25:12.164Z,7.70
2019-04-02T03:28:16.594Z,7.63
2019-04-02T03:31:21.047Z,7.60
2019-04-02T03:34:26.222Z,7.62
2019-04-02T03:37:31.183Z,7.53
2019-04-02T03:40:35.931Z,7.53
2019-04-02T03:43:42.233Z,7.39
2019-04-02T03:46:46.808Z,7.41
2019-04-02T03:49:51.263Z,7.41
2019-04-02T03:52:55.684Z,7.51
2019-04-02T03:56:00.135Z,7.47
2019-04-02T03:59:04.567Z,7.39
2019-04-02T04:02:09.334Z,7.32
2019-04-02T04:05:13.779Z,7.39
2019-04-02T04:08:18.493Z,7.27
2019-04-02T04:11:23.222Z,7.19
2019-04-02T04:14:27.648Z,7.24
2019-04-02T04:17:32.088Z,7.14
2019-04-02T04:20:36.793Z,7.12
2019-04-02T04:23:41.228Z,7.11
2019-04-02T04:26:46.113Z,7.20
2019-04-02T04:29:50.589Z,7.17
2019-04-02T04:32:55.027Z,7.13
2019-04-02T04:35:59.732Z,7.12
2019-04-02T04:39:06.103Z,6.94
2019-04-02T04:42:10.549Z,6.94
2019-04-02T04:45:15.254Z,6.93
2019-04-02T04:48:19.704Z,6.89
2019-04-02T04:51:24.407Z,6.93
2019-04-02T04:54:28.846Z,6.91
2019-04-02T04:57:34.001Z,6.87
2019-04-02T05:00:38.613Z,6.92
2019-04-02T05:04:38.321Z,6.98
2019-04-02T05:07:43.048Z,6.92
2019-04-02T05:13:43.548Z,7.02
2019-04-02T05:16:48.536Z,7.01
2019-04-02T05:19:53.271Z,7.11
2019-04-02T05:22:57.718Z,7.18
2019-04-02T05:26:02.160Z,7.14
2019-04-02T05:29:07.208Z,7.27
2019-04-02T05:32:11.776Z,7.49
2019-04-02T05:35:16.613Z,7.74
2019-04-02T05:38:21.054Z,7.97
2019-04-02T05:41:25.873Z,8.23
2019-04-02T05:44:30.605Z,8.25
2019-04-02T05:47:35.344Z,8.20
2019-04-02T05:50:40.171Z,8.13
2019-04-02T05:53:44.620Z,8.20
2019-04-02T05:56:49.690Z,8.10
2019-04-02T05:59:54.768Z,8.01
2019-04-02T06:02:59.207Z,8.07
2019-04-02T06:06:03.650Z,8.17
2019-04-02T06:09:08.564Z,8.41
2019-04-02T06:12:13.306Z,8.53
2019-04-02T06:15:17.723Z,8.74
2019-04-02T06:18:22.312Z,8.95
2019-04-02T06:21:28.190Z,9.09
2019-04-02T06:24:32.630Z,9.39
2019-04-02T06:27:37.347Z,10.01
2019-04-02T06:30:41.865Z,10.38
2019-04-02T06:33:46.319Z,10.93
2019-04-02T06:36:51.029Z,11.59
2019-04-02T06:39:55.477Z,11.88
2019-04-02T06:42:59.996Z,11.73
2019-04-02T06:46:04.859Z,11.83
2019-04-02T06:49:16.541Z,12.04
2019-04-02T06:52:21.338Z,12.71
2019-04-02T06:55:27.681Z,13.29
2019-04-02T06:58:31.963Z,13.52
2019-04-02T07:01:36.476Z,13.63
2019-04-02T07:04:41.704Z,13.48
2019-04-02T07:07:46.733Z,13.47
2019-04-02T07:10:53.951Z,13.97
2019-04-02T07:13:57.736Z,14.45
2019-04-02T07:17:02.460Z,15.12
2019-04-02T07:20:08.756Z,15.64
2019-04-02T07:23:13.201Z,15.48
2019-04-02T07:26:17.650Z,14.57
2019-04-02T07:29:22.510Z,14.42
2019-04-02T07:32:27.243Z,14.27
2019-04-02T07:35:31.718Z,14.00
2019-04-02T07:38:37.223Z,13.99
2019-04-02T07:41:41.808Z,13.85
2019-04-02T07:44:46.584Z,13.99
2019-04-02T07:47:51.305Z,13.86
2019-04-02T07:50:55.747Z,13.75
2019-04-02T07:54:00.454Z,13.63
2019-04-02T07:57:05.202Z,13.34
2019-04-02T08:00:10.657Z,13.43
2019-04-02T08:03:15.675Z,13.28
2019-04-02T08:06:20.190Z,13.26
2019-04-02T08:09:24.643Z,13.29
2019-04-02T08:12:29.355Z,13.19
2019-04-02T08:15:33.803Z,13.27
2019-04-02T08:18:38.258Z,13.34
2019-04-02T08:21:43.033Z,13.55
2019-04-02T08:24:47.484Z,13.79
2019-04-02T08:27:51.934Z,14.18
2019-04-02T08:30:56.715Z,14.32
2019-04-02T08:34:01.450Z,14.57
2019-04-02T08:37:06.609Z,14.77
2019-04-02T08:40:11.624Z,14.91
2019-04-02T08:43:18.134Z,15.15
2019-04-02T08:46:22.242Z,15.58
2019-04-02T08:49:26.946Z,15.91
2019-04-02T08:52:31.682Z,16.08
2019-04-02T08:55:36.413Z,16.09
2019-04-02T08:58:51.132Z,16.04
2019-04-02T09:01:48.102Z,16.05
2019-04-02T09:04:52.945Z,15.90
2019-04-02T09:07:57.677Z,16.22
2019-04-02T09:11:02.129Z,16.51
2019-04-02T09:14:07.958Z,16.67
2019-04-02T09:17:12.894Z,16.88
2019-04-02T09:20:18.048Z,17.44
2019-04-02T09:23:22.823Z,17.80
2019-04-02T09:26:27.321Z,18.27
2019-04-02T09:29:31.767Z,18.07
2019-04-02T09:32:36.932Z,17.91
2019-04-02T09:35:41.797Z,18.18
2019-04-02T09:38:46.771Z,18.37
2019-04-02T09:41:53.021Z,18.82
2019-04-02T09:44:57.963Z,19.37
2019-04-02T09:48:02.759Z,19.34
2019-04-02T09:51:08.091Z,19.47
2019-04-02T09:54:12.965Z,19.64
2019-04-02T09:57:17.628Z,19.51
2019-04-02T10:00:27.521Z,19.52
2019-04-02T10:03:33.231Z,19.70
2019-04-02T10:06:37.820Z,19.75
2019-04-02T10:09:42.535Z,19.96
2019-04-02T10:12:47.273Z,20.30
2019-04-02T10:15:51.728Z,20.21
2019-04-02T10:18:56.174Z,20.36
2019-04-02T10:22:00.620Z,20.69
2019-04-02T10:25:08.242Z,21.20
2019-04-02T10:28:14.756Z,21.58
2019-04-02T10:31:19.142Z,21.86
2019-04-02T10:34:23.967Z,21.84
2019-04-02T10:37:29.902Z,22.12
2019-04-02T10:40:36.443Z,21.25
2019-04-02T10:43:41.537Z,21.36
2019-04-02T10:46:46.278Z,21.46
2019-04-02T10:49:51.004Z,21.27
2019-04-02T10:52:55.773Z,21.56
2019-04-02T10:56:00.566Z,21.94
2019-04-02T10:59:05.607Z,22.17
2019-04-02T11:02:10.436Z,22.41
2019-04-02T11:05:18.333Z,22.22
2019-04-02T11:08:21.718Z,22.07
2019-04-02T11:11:26.567Z,22.38
2019-04-02T11:14:31.300Z,22.65
2019-04-02T11:17:36.142Z,22.64
2019-04-02T11:20:42.337Z,22.82
2019-04-02T11:23:46.771Z,22.63
2019-04-02T11:26:51.564Z,22.80
2019-04-02T11:29:56.285Z,23.23
2019-04-02T11:33:01.106Z,23.48
2019-04-02T11:36:06.557Z,23.60
2019-04-02T11:39:11.400Z,23.53
2019-04-02T11:42:16.231Z,23.46
2019-04-02T11:45:20.749Z,23.33
2019-04-02T11:48:25.486Z,22.95
2019-04-02T11:51:30.219Z,23.15
2019-04-02T11:54:34.738Z,23.18
2019-04-02T11:57:41.102Z,23.02
2019-04-02T12:00:47.287Z,23.05
2019-04-02T12:03:51.729Z,23.58
2019-04-02T12:06:56.531Z,23.22
2019-04-02T12:10:00.987Z,23.41
2019-04-02T12:13:05.427Z,23.53
2019-04-02T12:16:09.887Z,23.62
2019-04-02T12:19:14.378Z,23.84
2019-04-02T12:22:19.061Z,24.21
2019-04-02T12:25:23.799Z,24.26
2019-04-02T12:28:28.522Z,23.71
2019-04-02T12:31:35.537Z,23.59
2019-04-02T12:34:39.724Z,23.95
2019-04-02T12:37:44.456Z,23.98
2019-04-02T12:40:49.198Z,23.65
2019-04-02T12:43:53.919Z,23.90
2019-04-02T12:46:58.362Z,24.09
2019-04-02T12:50:03.597Z,24.07
2019-04-02T12:53:08.527Z,24.15
2019-04-02T12:56:12.984Z,23.93
2019-04-02T12:59:17.677Z,24.03
2019-04-02T13:02:22.558Z,23.97
2019-04-02T13:05:27.340Z,23.94
2019-04-02T13:08:32.666Z,23.95
2019-04-02T13:11:37.518Z,23.79
2019-04-02T13:14:42.250Z,23.96
2019-04-02T13:17:47.022Z,24.18
2019-04-02T13:20:51.710Z,24.37
2019-04-02T13:23:56.441Z,24.23
2019-04-02T13:27:01.175Z,24.06
2019-04-02T13:30:09.289Z,24.47
2019-04-02T13:33:13.740Z,24.75
2019-04-02T13:36:18.441Z,24.81
2019-04-02T13:39:23.658Z,24.67
2019-04-02T13:42:28.934Z,24.74
2019-04-02T13:45:33.393Z,24.75
2019-04-02T13:48:37.820Z,24.69
2019-04-02T13:51:42.263Z,24.88
2019-04-02T13:54:46.725Z,25.01
2019-04-02T13:57:51.160Z,25.12
2019-04-02T14:01:11.846Z,25.10
2019-04-02T14:04:16.288Z,24.98
2019-04-02T14:07:20.744Z,25.11
2019-04-02T14:10:25.182Z,25.38
2019-04-02T14:13:29.630Z,25.53
2019-04-02T14:16:34.158Z,25.80
2019-04-02T14:19:38.903Z,25.73
2019-04-02T14:22:43.361Z,25.52
2019-04-02T14:25:49.575Z,24.98
2019-04-02T14:28:54.321Z,24.57
2019-04-02T14:31:59.696Z,24.11
2019-04-02T14:35:06.500Z,23.88
2019-04-02T14:38:12.366Z,24.03
2019-04-02T14:41:17.651Z,23.88
2019-04-02T14:44:22.091Z,23.61
2019-04-02T14:47:26.801Z,23.29
2019-04-02T14:50:31.537Z,23.04
2019-04-02T14:53:36.761Z,22.74
2019-04-02T14:56:41.586Z,22.55
2019-04-02T14:59:46.543Z,22.42
2019-04-02T15:02:51.998Z,22.31
2019-04-02T15:05:56.584Z,22.19
2019-04-02T15:09:01.352Z,22.11
2019-04-02T15:12:06.084Z,21.95
2019-04-02T15:15:10.597Z,21.95
2019-04-02T15:18:15.033Z,21.92
2019-04-02T15:21:19.775Z,21.82
2019-04-02T15:24:30.150Z,21.67
2019-04-02T15:27:50.181Z,21.59
2019-04-02T15:30:55.524Z,21.61
2019-04-02T15:34:02.242Z,21.33
2019-04-02T15:37:06.969Z,21.23
2019-04-02T15:40:11.908Z,21.22
2019-04-02T15:43:16.357Z,21.23
2019-04-02T15:46:20.792Z,21.18
2019-04-02T15:49:25.483Z,21.11
2019-04-02T15:52:30.215Z,20.92
2019-04-02T15:55:34.946Z,20.78
2019-04-02T15:58:39.687Z,20.75
2019-04-02T16:01:44.131Z,20.66
2019-04-02T16:04:51.171Z,20.66
2019-04-02T16:07:55.004Z,20.69
2019-04-02T16:10:59.440Z,20.69
2019-04-02T16:14:04.147Z,20.59
2019-04-02T16:17:10.126Z,20.29
2019-04-02T16:20:16.044Z,20.15
2019-04-02T16:23:20.488Z,19.99
2019-04-02T16:26:27.748Z,19.99
2019-04-02T16:29:31.694Z,20.01
2019-04-02T16:32:36.428Z,19.88
2019-04-02T16:35:41.149Z,19.89
2019-04-02T16:38:45.610Z,19.97
2019-04-02T16:41:50.438Z,20.05
2019-04-02T16:44:57.597Z,20.06
2019-04-02T16:48:02.327Z,20.05
2019-04-02T16:51:07.059Z,20.18
2019-04-02T16:54:11.798Z,20.21
2019-04-02T16:57:16.518Z,20.20
2019-04-02T17:00:20.971Z,20.13
2019-04-02T17:03:26.919Z,20.10
2019-04-02T17:06:31.842Z,20.05
2019-04-02T17:09:36.301Z,20.01
2019-04-02T17:12:41.102Z,19.97
2019-04-02T17:15:45.555Z,19.97
2019-04-02T17:18:50.004Z,19.94
2019-04-02T17:21:54.449Z,19.92
2019-04-02T17:24:58.890Z,19.90
2019-04-02T17:28:03.331Z,19.80
2019-04-02T17:31:08.048Z,19.65
2019-04-02T17:34:12.502Z,19.57
2019-04-02T17:37:17.208Z,19.54
2019-04-02T17:40:21.932Z,19.47
2019-04-02T17:43:26.669Z,19.50
2019-04-02T17:46:31.393Z,19.50
2019-04-02T17:49:38.743Z,19.48
2019-04-02T17:52:42.301Z,19.38
2019-04-02T17:55:46.752Z,19.42
2019-04-02T17:58:51.275Z,19.38
2019-04-02T18:01:55.720Z,19.31
2019-04-02T18:05:00.179Z,19.25
2019-04-02T18:08:04.873Z,19.14
2019-04-02T18:11:09.319Z,19.07
2019-04-02T18:14:14.009Z,18.95
2019-04-02T18:17:18.614Z,18.94
2019-04-02T18:20:23.064Z,18.83
2019-04-02T18:23:27.510Z,18.48
2019-04-02T18:26:32.283Z,18.45
2019-04-02T18:29:36.728Z,18.35
2019-04-02T18:32:41.166Z,18.18
2019-04-02T18:35:45.615Z,17.98
2019-04-02T18:38:50.052Z,17.86
2019-04-02T18:41:54.803Z,17.73
2019-04-02T18:44:59.556Z,17.72
2019-04-02T18:48:04.272Z,17.63
2019-04-02T18:51:08.725Z,17.47
2019-04-02T18:54:13.433Z,17.43
2019-04-02T18:57:17.877Z,17.34
2019-04-02T19:00:22.747Z,17.26
2019-04-02T19:03:29.791Z,17.28
2019-04-02T19:06:36.236Z,17.22
2019-04-02T19:09:39.864Z,17.39
2019-04-02T19:12:44.381Z,17.37
2019-04-02T19:15:49.096Z,17.27
2019-04-02T19:18:53.956Z,17.19
2019-04-02T19:21:58.466Z,17.18
2019-04-02T19:25:04.038Z,17.25
2019-04-02T19:28:10.219Z,17.25
2019-04-02T19:31:15.028Z,17.05
2019-04-02T19:34:19.736Z,16.89
2019-04-02T19:37:24.178Z,16.79
2019-04-02T19:40:28.891Z,16.78
2019-04-02T19:43:33.327Z,16.78
2019-04-02T19:46:37.768Z,16.98
2019-04-02T19:49:42.465Z,17.20
2019-04-02T19:52:46.910Z,17.26
2019-04-02T19:55:51.361Z,17.22
2019-04-02T19:58:56.044Z,17.25
2019-04-02T20:02:00.829Z,17.28
2019-04-02T20:05:07.252Z,17.23
2019-04-02T20:08:11.978Z,17.28
2019-04-02T20:11:16.432Z,17.10
2019-04-02T20:14:22.450Z,17.11
2019-04-02T20:17:27.102Z,17.05
2019-04-02T20:20:31.819Z,16.80
2019-04-02T20:23:36.265Z,16.75
2019-04-02T20:26:40.976Z,16.85
2019-04-02T20:29:49.067Z,16.88
2019-04-02T20:32:51.591Z,16.87
2019-04-02T20:35:56.301Z,16.84
2019-04-02T20:39:01.027Z,16.77
2019-04-02T20:42:05.546Z,16.55
2019-04-02T20:45:10.492Z,16.63
2019-04-02T20:48:15.223Z,16.59
2019-04-02T20:51:19.704Z,16.57
2019-04-02T20:54:24.136Z,16.47
2019-04-02T20:57:28.895Z,16.47
2019-04-02T21:00:33.627Z,16.40
2019-04-02T21:03:48.787Z,16.46
2019-04-02T21:06:45.465Z,16.54
2019-04-02T21:09:49.952Z,16.54
2019-04-02T21:12:54.708Z,16.57
2019-04-02T21:15:59.434Z,16.52
2019-04-02T21:19:04.168Z,16.40
2019-04-02T21:22:08.643Z,16.30
2019-04-02T21:25:13.415Z,16.37
2019-04-02T21:28:18.154Z,16.35
2019-04-02T21:31:22.884Z,16.44
2019-04-02T21:34:37.783Z,16.55
2019-04-02T21:37:33.838Z,16.56
2019-04-02T21:40:38.224Z,16.51
2019-04-02T21:43:43.748Z,16.37
2019-04-02T21:46:48.486Z,16.47
2019-04-02T21:49:52.915Z,16.39
2019-04-02T21:52:57.444Z,16.29
2019-04-02T21:56:02.160Z,16.28
2019-04-02T21:59:07.097Z,16.48
2019-04-02T22:02:12.132Z,16.24
2019-04-02T22:05:16.970Z,16.09
2019-04-02T22:08:21.699Z,15.98
2019-04-02T22:11:26.427Z,15.94
2019-04-02T22:14:30.873Z,15.79
2019-04-02T22:17:35.311Z,15.76
2019-04-02T22:20:40.010Z,15.63
2019-04-02T22:23:44.465Z,15.55
2019-04-02T22:26:49.163Z,15.49
2019-04-02T22:29:53.602Z,15.45
2019-04-02T22:32:58.314Z,15.44
2019-04-02T22:36:02.747Z,15.29
2019-04-02T22:39:08.269Z,15.15
2019-04-02T22:42:12.716Z,15.06
2019-04-02T22:45:17.152Z,15.06
2019-04-02T22:48:21.871Z,15.08
2019-04-02T22:51:26.308Z,14.97
2019-04-02T22:54:31.892Z,14.94
2019-04-02T22:57:36.918Z,15.01
2019-04-02T23:00:41.607Z,14.92
2019-04-02T23:03:46.345Z,14.78
2019-04-02T23:06:50.781Z,14.74
2019-04-02T23:09:55.495Z,14.69
2019-04-02T23:12:59.937Z,14.68
2019-04-02T23:16:23.882Z,14.76
2019-04-02T23:19:12.749Z,14.71
2019-04-02T23:22:17.290Z,14.74
2019-04-02T23:25:21.734Z,14.75
2019-04-02T23:28:26.187Z,14.66
2019-04-02T23:31:30.620Z,14.55
2019-04-02T23:34:35.065Z,14.45
2019-04-02T23:37:39.936Z,14.33
2019-04-02T23:40:44.534Z,14.40
2019-04-02T23:43:48.978Z,14.32
2019-04-02T23:46:53.513Z,14.25
2019-04-02T23:49:57.940Z,14.38
2019-04-02T23:53:03.650Z,14.37
2019-04-02T23:56:08.269Z,14.37
2019-04-02T23:59:12.766Z,14.24
